sensor_id;sensor_type;location;lat;lon;timestamp;P1;durP1;ratioP1;P2;durP2;ratioP2
19127;SDS011;9696;53.686;10.094;2022-10-16T00:01:48;10.37;;;4.90;;
19127;SDS011;9696;53.686;10.094;2022-10-16T00:04:17;8.87;;;5.10;;
19127;SDS011;9696;53.686;10.094;2022-10-16T00:06:46;7.30;;;4.83;;
19127;SDS011;9696;53.686;10.094;2022-10-16T00:09:15;7.17;;;4.63;;
19127;SDS011;9696;53.686;10.094;2022-10-16T00:11:44;13.50;;;4.40;;
19127;SDS011;9696;53.686;10.094;2022-10-16T00:14:15;12.30;;;4.33;;
19127;SDS011;9696;53.686;10.094;2022-10-16T00:16:44;11.20;;;4.93;;
19127;SDS011;9696;53.686;10.094;2022-10-16T00:19:13;8.40;;;4.63;;
19127;SDS011;9696;53.686;10.094;2022-10-16T00:21:42;5.77;;;4.20;;
19127;SDS011;9696;53.686;10.094;2022-10-16T00:24:11;10.17;;;4.40;;
19127;SDS011;9696;53.686;10.094;2022-10-16T00:26:40;10.10;;;4.57;;
19127;SDS011;9696;53.686;10.094;2022-10-16T00:29:10;6.13;;;4.10;;
19127;SDS011;9696;53.686;10.094;2022-10-16T00:31:40;10.03;;;3.83;;
19127;SDS011;9696;53.686;10.094;2022-10-16T00:34:09;6.20;;;4.00;;
19127;SDS011;9696;53.686;10.094;2022-10-16T00:36:38;9.57;;;4.27;;
19127;SDS011;9696;53.686;10.094;2022-10-16T00:39:07;7.43;;;3.80;;
19127;SDS011;9696;53.686;10.094;2022-10-16T00:41:36;14.10;;;3.20;;
19127;SDS011;9696;53.686;10.094;2022-10-16T00:47:06;9.27;;;2.93;;
19127;SDS011;9696;53.686;10.094;2022-10-16T00:49:37;11.47;;;3.23;;
19127;SDS011;9696;53.686;10.094;2022-10-16T00:52:06;7.13;;;2.37;;
19127;SDS011;9696;53.686;10.094;2022-10-16T00:54:35;6.40;;;2.37;;
19127;SDS011;9696;53.686;10.094;2022-10-16T00:57:05;3.33;;;2.00;;
19127;SDS011;9696;53.686;10.094;2022-10-16T00:59:35;5.15;;;2.30;;
19127;SDS011;9696;53.686;10.094;2022-10-16T01:02:08;5.40;;;1.90;;
19127;SDS011;9696;53.686;10.094;2022-10-16T01:04:42;4.53;;;2.10;;
19127;SDS011;9696;53.686;10.094;2022-10-16T01:07:14;5.27;;;1.80;;
19127;SDS011;9696;53.686;10.094;2022-10-16T01:09:55;3.50;;;1.57;;
19127;SDS011;9696;53.686;10.094;2022-10-16T01:12:33;14.77;;;2.23;;
19127;SDS011;9696;53.686;10.094;2022-10-16T01:15:15;4.53;;;1.37;;
19127;SDS011;9696;53.686;10.094;2022-10-16T01:17:53;2.67;;;1.30;;
19127;SDS011;9696;53.686;10.094;2022-10-16T01:20:29;5.50;;;2.30;;
19127;SDS011;9696;53.686;10.094;2022-10-16T01:23:14;2.27;;;1.20;;
19127;SDS011;9696;53.686;10.094;2022-10-16T01:25:59;3.87;;;1.50;;
19127;SDS011;9696;53.686;10.094;2022-10-16T01:28:41;3.97;;;1.30;;
19127;SDS011;9696;53.686;10.094;2022-10-16T01:31:17;7.00;;;1.37;;
19127;SDS011;9696;53.686;10.094;2022-10-16T01:33:51;3.23;;;1.30;;
19127;SDS011;9696;53.686;10.094;2022-10-16T01:36:25;1.97;;;1.33;;
19127;SDS011;9696;53.686;10.094;2022-10-16T01:39:00;3.23;;;1.60;;
19127;SDS011;9696;53.686;10.094;2022-10-16T01:41:31;4.90;;;1.43;;
19127;SDS011;9696;53.686;10.094;2022-10-16T01:44:04;5.33;;;1.50;;
19127;SDS011;9696;53.686;10.094;2022-10-16T01:46:38;3.87;;;1.57;;
19127;SDS011;9696;53.686;10.094;2022-10-16T01:49:10;1.73;;;1.10;;
19127;SDS011;9696;53.686;10.094;2022-10-16T01:51:40;7.32;;;1.30;;
19127;SDS011;9696;53.686;10.094;2022-10-16T01:54:12;3.42;;;1.70;;
19127;SDS011;9696;53.686;10.094;2022-10-16T01:56:44;3.80;;;1.17;;
19127;SDS011;9696;53.686;10.094;2022-10-16T01:59:18;5.60;;;1.30;;
19127;SDS011;9696;53.686;10.094;2022-10-16T02:01:52;4.90;;;1.37;;
19127;SDS011;9696;53.686;10.094;2022-10-16T02:04:26;6.93;;;1.00;;
19127;SDS011;9696;53.686;10.094;2022-10-16T02:06:59;3.30;;;1.07;;
19127;SDS011;9696;53.686;10.094;2022-10-16T02:09:29;7.77;;;1.00;;
19127;SDS011;9696;53.686;10.094;2022-10-16T02:12:00;4.13;;;1.20;;
19127;SDS011;9696;53.686;10.094;2022-10-16T02:14:35;5.10;;;1.43;;
19127;SDS011;9696;53.686;10.094;2022-10-16T02:17:09;5.27;;;1.37;;
19127;SDS011;9696;53.686;10.094;2022-10-16T02:19:40;2.10;;;1.10;;
19127;SDS011;9696;53.686;10.094;2022-10-16T02:22:12;3.60;;;1.10;;
19127;SDS011;9696;53.686;10.094;2022-10-16T02:24:47;5.40;;;1.50;;
19127;SDS011;9696;53.686;10.094;2022-10-16T02:27:25;1.50;;;1.00;;
19127;SDS011;9696;53.686;10.094;2022-10-16T02:30:02;3.83;;;1.10;;
19127;SDS011;9696;53.686;10.094;2022-10-16T02:32:36;3.30;;;1.30;;
19127;SDS011;9696;53.686;10.094;2022-10-16T02:35:08;3.10;;;1.60;;
19127;SDS011;9696;53.686;10.094;2022-10-16T02:37:37;3.23;;;1.60;;
19127;SDS011;9696;53.686;10.094;2022-10-16T02:40:08;4.47;;;1.30;;
19127;SDS011;9696;53.686;10.094;2022-10-16T02:42:38;5.37;;;1.53;;
19127;SDS011;9696;53.686;10.094;2022-10-16T02:45:10;3.53;;;1.20;;
19127;SDS011;9696;53.686;10.094;2022-10-16T02:47:39;2.83;;;1.00;;
19127;SDS011;9696;53.686;10.094;2022-10-16T02:50:08;2.80;;;1.30;;
19127;SDS011;9696;53.686;10.094;2022-10-16T02:52:38;4.10;;;1.00;;
19127;SDS011;9696;53.686;10.094;2022-10-16T02:55:07;4.13;;;1.27;;
19127;SDS011;9696;53.686;10.094;2022-10-16T02:57:36;4.63;;;1.20;;
19127;SDS011;9696;53.686;10.094;2022-10-16T03:00:07;7.77;;;1.10;;
19127;SDS011;9696;53.686;10.094;2022-10-16T03:02:40;2.83;;;1.30;;
19127;SDS011;9696;53.686;10.094;2022-10-16T03:05:09;4.00;;;1.20;;
19127;SDS011;9696;53.686;10.094;2022-10-16T03:07:39;3.90;;;1.30;;
19127;SDS011;9696;53.686;10.094;2022-10-16T03:10:08;2.60;;;1.03;;
19127;SDS011;9696;53.686;10.094;2022-10-16T03:12:37;5.07;;;1.17;;
19127;SDS011;9696;53.686;10.094;2022-10-16T03:15:06;2.13;;;0.90;;
19127;SDS011;9696;53.686;10.094;2022-10-16T03:17:37;5.23;;;1.40;;
19127;SDS011;9696;53.686;10.094;2022-10-16T03:20:07;7.10;;;1.50;;
19127;SDS011;9696;53.686;10.094;2022-10-16T03:22:36;2.07;;;1.00;;
19127;SDS011;9696;53.686;10.094;2022-10-16T03:25:05;2.97;;;1.13;;
19127;SDS011;9696;53.686;10.094;2022-10-16T03:27:35;4.30;;;1.03;;
19127;SDS011;9696;53.686;10.094;2022-10-16T03:30:04;3.63;;;0.83;;
19127;SDS011;9696;53.686;10.094;2022-10-16T03:32:34;3.00;;;1.10;;
19127;SDS011;9696;53.686;10.094;2022-10-16T03:35:05;7.07;;;1.17;;
19127;SDS011;9696;53.686;10.094;2022-10-16T03:37:34;1.10;;;1.00;;
19127;SDS011;9696;53.686;10.094;2022-10-16T03:40:04;7.00;;;1.27;;
19127;SDS011;9696;53.686;10.094;2022-10-16T03:42:34;2.60;;;1.03;;
19127;SDS011;9696;53.686;10.094;2022-10-16T03:45:03;2.10;;;0.90;;
19127;SDS011;9696;53.686;10.094;2022-10-16T03:47:33;3.90;;;1.20;;
19127;SDS011;9696;53.686;10.094;2022-10-16T03:50:02;3.83;;;1.50;;
19127;SDS011;9696;53.686;10.094;2022-10-16T03:52:34;2.60;;;1.10;;
19127;SDS011;9696;53.686;10.094;2022-10-16T03:55:03;9.13;;;1.33;;
19127;SDS011;9696;53.686;10.094;2022-10-16T03:57:33;7.77;;;0.90;;
19127;SDS011;9696;53.686;10.094;2022-10-16T04:00:02;1.80;;;0.90;;
19127;SDS011;9696;53.686;10.094;2022-10-16T04:02:37;3.23;;;0.80;;
19127;SDS011;9696;53.686;10.094;2022-10-16T04:05:09;2.83;;;1.00;;
19127;SDS011;9696;53.686;10.094;2022-10-16T04:07:38;2.03;;;0.80;;
19127;SDS011;9696;53.686;10.094;2022-10-16T04:10:07;1.70;;;0.87;;
19127;SDS011;9696;53.686;10.094;2022-10-16T04:12:36;5.30;;;0.90;;
19127;SDS011;9696;53.686;10.094;2022-10-16T04:15:06;1.27;;;1.00;;
19127;SDS011;9696;53.686;10.094;2022-10-16T04:17:35;2.00;;;0.90;;
19127;SDS011;9696;53.686;10.094;2022-10-16T04:20:05;4.07;;;1.10;;
19127;SDS011;9696;53.686;10.094;2022-10-16T04:22:35;3.53;;;0.90;;
19127;SDS011;9696;53.686;10.094;2022-10-16T04:25:05;5.07;;;1.30;;
19127;SDS011;9696;53.686;10.094;2022-10-16T04:27:34;1.83;;;0.90;;
19127;SDS011;9696;53.686;10.094;2022-10-16T04:30:08;2.77;;;0.90;;
19127;SDS011;9696;53.686;10.094;2022-10-16T04:32:37;2.03;;;0.90;;
19127;SDS011;9696;53.686;10.094;2022-10-16T04:35:07;4.87;;;1.30;;
19127;SDS011;9696;53.686;10.094;2022-10-16T04:37:38;2.43;;;0.90;;
19127;SDS011;9696;53.686;10.094;2022-10-16T04:40:07;2.27;;;0.83;;
19127;SDS011;9696;53.686;10.094;2022-10-16T04:42:36;2.30;;;0.90;;
19127;SDS011;9696;53.686;10.094;2022-10-16T04:45:05;1.93;;;0.80;;
19127;SDS011;9696;53.686;10.094;2022-10-16T04:47:40;5.53;;;1.40;;
19127;SDS011;9696;53.686;10.094;2022-10-16T04:50:09;4.10;;;1.13;;
19127;SDS011;9696;53.686;10.094;2022-10-16T04:52:39;5.60;;;0.77;;
19127;SDS011;9696;53.686;10.094;2022-10-16T04:55:08;5.63;;;0.90;;
19127;SDS011;9696;53.686;10.094;2022-10-16T04:57:37;5.47;;;0.80;;
19127;SDS011;9696;53.686;10.094;2022-10-16T05:00:07;4.90;;;0.80;;
19127;SDS011;9696;53.686;10.094;2022-10-16T05:02:36;2.97;;;0.97;;
19127;SDS011;9696;53.686;10.094;2022-10-16T05:05:06;1.93;;;0.80;;
19127;SDS011;9696;53.686;10.094;2022-10-16T05:07:35;2.33;;;1.17;;
19127;SDS011;9696;53.686;10.094;2022-10-16T05:10:06;4.67;;;1.00;;
19127;SDS011;9696;53.686;10.094;2022-10-16T05:12:35;3.10;;;0.93;;
19127;SDS011;9696;53.686;10.094;2022-10-16T05:15:04;2.50;;;0.97;;
19127;SDS011;9696;53.686;10.094;2022-10-16T05:17:34;4.07;;;1.00;;
19127;SDS011;9696;53.686;10.094;2022-10-16T05:20:09;1.43;;;0.90;;
19127;SDS011;9696;53.686;10.094;2022-10-16T05:22:39;7.90;;;1.13;;
19127;SDS011;9696;53.686;10.094;2022-10-16T05:25:09;2.40;;;1.23;;
19127;SDS011;9696;53.686;10.094;2022-10-16T05:27:38;9.63;;;1.43;;
19127;SDS011;9696;53.686;10.094;2022-10-16T05:30:08;7.70;;;1.37;;
19127;SDS011;9696;53.686;10.094;2022-10-16T05:32:38;5.93;;;1.77;;
19127;SDS011;9696;53.686;10.094;2022-10-16T05:35:07;4.10;;;1.20;;
19127;SDS011;9696;53.686;10.094;2022-10-16T05:37:38;7.17;;;1.50;;
19127;SDS011;9696;53.686;10.094;2022-10-16T05:40:08;2.37;;;1.33;;
19127;SDS011;9696;53.686;10.094;2022-10-16T05:42:39;3.67;;;1.53;;
19127;SDS011;9696;53.686;10.094;2022-10-16T05:45:09;5.40;;;1.17;;
19127;SDS011;9696;53.686;10.094;2022-10-16T05:47:39;2.47;;;1.20;;
19127;SDS011;9696;53.686;10.094;2022-10-16T05:50:08;2.53;;;1.17;;
19127;SDS011;9696;53.686;10.094;2022-10-16T05:52:37;2.63;;;1.13;;
19127;SDS011;9696;53.686;10.094;2022-10-16T05:55:06;4.77;;;1.47;;
19127;SDS011;9696;53.686;10.094;2022-10-16T05:57:37;3.93;;;1.30;;
19127;SDS011;9696;53.686;10.094;2022-10-16T06:00:06;2.87;;;1.30;;
19127;SDS011;9696;53.686;10.094;2022-10-16T06:02:39;6.07;;;1.77;;
19127;SDS011;9696;53.686;10.094;2022-10-16T06:05:08;3.13;;;1.20;;
19127;SDS011;9696;53.686;10.094;2022-10-16T06:07:37;4.30;;;1.50;;
19127;SDS011;9696;53.686;10.094;2022-10-16T06:10:07;5.33;;;1.23;;
19127;SDS011;9696;53.686;10.094;2022-10-16T06:12:37;4.80;;;1.40;;
19127;SDS011;9696;53.686;10.094;2022-10-16T06:15:07;4.80;;;1.60;;
19127;SDS011;9696;53.686;10.094;2022-10-16T06:17:36;5.67;;;1.30;;
19127;SDS011;9696;53.686;10.094;2022-10-16T06:20:05;3.00;;;1.10;;
19127;SDS011;9696;53.686;10.094;2022-10-16T06:22:34;5.77;;;1.10;;
19127;SDS011;9696;53.686;10.094;2022-10-16T06:25:04;2.13;;;1.20;;
19127;SDS011;9696;53.686;10.094;2022-10-16T06:27:33;3.30;;;1.10;;
19127;SDS011;9696;53.686;10.094;2022-10-16T06:30:04;1.77;;;0.90;;
19127;SDS011;9696;53.686;10.094;2022-10-16T06:32:34;3.57;;;1.07;;
19127;SDS011;9696;53.686;10.094;2022-10-16T06:35:03;3.90;;;1.20;;
19127;SDS011;9696;53.686;10.094;2022-10-16T06:37:32;5.17;;;1.20;;
19127;SDS011;9696;53.686;10.094;2022-10-16T06:40:01;6.20;;;1.07;;
19127;SDS011;9696;53.686;10.094;2022-10-16T06:42:31;1.37;;;1.07;;
19127;SDS011;9696;53.686;10.094;2022-10-16T06:45:00;2.23;;;1.20;;
19127;SDS011;9696;53.686;10.094;2022-10-16T06:47:30;10.07;;;1.77;;
19127;SDS011;9696;53.686;10.094;2022-10-16T06:49:59;5.43;;;1.37;;
19127;SDS011;9696;53.686;10.094;2022-10-16T06:52:28;4.00;;;1.40;;
19127;SDS011;9696;53.686;10.094;2022-10-16T06:54:57;4.03;;;1.10;;
19127;SDS011;9696;53.686;10.094;2022-10-16T06:57:26;5.50;;;1.33;;
19127;SDS011;9696;53.686;10.094;2022-10-16T06:59:55;4.00;;;1.50;;
19127;SDS011;9696;53.686;10.094;2022-10-16T07:02:24;2.80;;;1.30;;
19127;SDS011;9696;53.686;10.094;2022-10-16T07:04:55;2.57;;;1.43;;
19127;SDS011;9696;53.686;10.094;2022-10-16T07:07:24;6.53;;;1.40;;
19127;SDS011;9696;53.686;10.094;2022-10-16T07:09:53;5.83;;;1.50;;
19127;SDS011;9696;53.686;10.094;2022-10-16T07:12:22;2.07;;;1.40;;
19127;SDS011;9696;53.686;10.094;2022-10-16T07:14:51;6.97;;;1.47;;
19127;SDS011;9696;53.686;10.094;2022-10-16T07:17:21;6.27;;;1.40;;
19127;SDS011;9696;53.686;10.094;2022-10-16T07:19:50;3.40;;;1.60;;
19127;SDS011;9696;53.686;10.094;2022-10-16T07:22:21;4.20;;;1.50;;
19127;SDS011;9696;53.686;10.094;2022-10-16T07:24:50;4.07;;;1.43;;
19127;SDS011;9696;53.686;10.094;2022-10-16T07:27:20;2.60;;;1.20;;
19127;SDS011;9696;53.686;10.094;2022-10-16T07:29:50;3.00;;;1.17;;
19127;SDS011;9696;53.686;10.094;2022-10-16T07:32:19;5.00;;;1.58;;
19127;SDS011;9696;53.686;10.094;2022-10-16T07:34:48;2.90;;;1.27;;
19127;SDS011;9696;53.686;10.094;2022-10-16T07:37:18;5.45;;;1.25;;
19127;SDS011;9696;53.686;10.094;2022-10-16T07:39:48;3.10;;;1.23;;
19127;SDS011;9696;53.686;10.094;2022-10-16T07:42:17;4.13;;;1.30;;
19127;SDS011;9696;53.686;10.094;2022-10-16T07:44:46;3.87;;;1.37;;
19127;SDS011;9696;53.686;10.094;2022-10-16T07:47:15;6.15;;;1.17;;
19127;SDS011;9696;53.686;10.094;2022-10-16T07:49:44;4.28;;;1.10;;
19127;SDS011;9696;53.686;10.094;2022-10-16T07:52:13;4.30;;;1.42;;
19127;SDS011;9696;53.686;10.094;2022-10-16T07:54:42;2.28;;;1.27;;
19127;SDS011;9696;53.686;10.094;2022-10-16T07:57:12;4.07;;;1.30;;
19127;SDS011;9696;53.686;10.094;2022-10-16T07:59:45;4.43;;;1.33;;
19127;SDS011;9696;53.686;10.094;2022-10-16T08:02:14;4.68;;;1.10;;
19127;SDS011;9696;53.686;10.094;2022-10-16T08:04:46;2.55;;;1.23;;
19127;SDS011;9696;53.686;10.094;2022-10-16T08:07:15;2.92;;;1.25;;
19127;SDS011;9696;53.686;10.094;2022-10-16T08:09:44;4.30;;;1.45;;
19127;SDS011;9696;53.686;10.094;2022-10-16T08:12:17;3.30;;;1.30;;
19127;SDS011;9696;53.686;10.094;2022-10-16T08:14:46;1.80;;;1.20;;
19127;SDS011;9696;53.686;10.094;2022-10-16T08:17:15;5.00;;;1.60;;
19127;SDS011;9696;53.686;10.094;2022-10-16T08:19:44;4.05;;;1.50;;
19127;SDS011;9696;53.686;10.094;2022-10-16T08:22:14;4.63;;;1.40;;
19127;SDS011;9696;53.686;10.094;2022-10-16T08:24:43;3.20;;;1.40;;
19127;SDS011;9696;53.686;10.094;2022-10-16T08:27:12;9.43;;;1.88;;
19127;SDS011;9696;53.686;10.094;2022-10-16T08:29:42;3.75;;;1.63;;
19127;SDS011;9696;53.686;10.094;2022-10-16T08:32:11;4.10;;;1.30;;
19127;SDS011;9696;53.686;10.094;2022-10-16T08:34:40;2.38;;;1.27;;
19127;SDS011;9696;53.686;10.094;2022-10-16T08:37:09;4.57;;;1.30;;
19127;SDS011;9696;53.686;10.094;2022-10-16T08:39:40;2.75;;;1.65;;
19127;SDS011;9696;53.686;10.094;2022-10-16T08:42:21;3.55;;;1.20;;
19127;SDS011;9696;53.686;10.094;2022-10-16T08:45:08;4.22;;;1.33;;
19127;SDS011;9696;53.686;10.094;2022-10-16T08:47:49;2.30;;;1.33;;
19127;SDS011;9696;53.686;10.094;2022-10-16T08:50:29;6.00;;;1.60;;
19127;SDS011;9696;53.686;10.094;2022-10-16T08:53:00;9.23;;;1.48;;
19127;SDS011;9696;53.686;10.094;2022-10-16T08:55:33;2.47;;;1.63;;
19127;SDS011;9696;53.686;10.094;2022-10-16T08:58:10;8.35;;;1.73;;
19127;SDS011;9696;53.686;10.094;2022-10-16T09:00:42;3.25;;;1.38;;
19127;SDS011;9696;53.686;10.094;2022-10-16T09:03:17;3.83;;;1.40;;
19127;SDS011;9696;53.686;10.094;2022-10-16T09:08:58;4.70;;;1.13;;
19127;SDS011;9696;53.686;10.094;2022-10-16T09:11:39;3.15;;;1.20;;
19127;SDS011;9696;53.686;10.094;2022-10-16T09:14:28;2.30;;;0.88;;
19127;SDS011;9696;53.686;10.094;2022-10-16T09:17:14;4.15;;;1.02;;
19127;SDS011;9696;53.686;10.094;2022-10-16T09:20:18;2.55;;;1.20;;
19127;SDS011;9696;53.686;10.094;2022-10-16T09:22:55;2.70;;;1.15;;
19127;SDS011;9696;53.686;10.094;2022-10-16T09:25:38;1.50;;;0.90;;
19127;SDS011;9696;53.686;10.094;2022-10-16T09:28:10;3.78;;;1.17;;
19127;SDS011;9696;53.686;10.094;2022-10-16T09:30:39;3.00;;;1.17;;
19127;SDS011;9696;53.686;10.094;2022-10-16T09:33:10;2.85;;;0.70;;
19127;SDS011;9696;53.686;10.094;2022-10-16T09:35:41;4.70;;;0.82;;
19127;SDS011;9696;53.686;10.094;2022-10-16T09:38:20;3.92;;;1.13;;
19127;SDS011;9696;53.686;10.094;2022-10-16T09:40:51;2.20;;;0.80;;
19127;SDS011;9696;53.686;10.094;2022-10-16T09:43:31;4.78;;;0.80;;
19127;SDS011;9696;53.686;10.094;2022-10-16T09:46:07;3.03;;;0.55;;
19127;SDS011;9696;53.686;10.094;2022-10-16T09:48:50;2.28;;;0.73;;
19127;SDS011;9696;53.686;10.094;2022-10-16T09:51:22;2.03;;;0.77;;
19127;SDS011;9696;53.686;10.094;2022-10-16T09:53:57;7.60;;;0.95;;
19127;SDS011;9696;53.686;10.094;2022-10-16T09:56:28;4.38;;;0.88;;
19127;SDS011;9696;53.686;10.094;2022-10-16T09:59:00;2.60;;;0.90;;
19127;SDS011;9696;53.686;10.094;2022-10-16T10:01:31;1.98;;;0.77;;
19127;SDS011;9696;53.686;10.094;2022-10-16T10:04:07;4.30;;;0.93;;
19127;SDS011;9696;53.686;10.094;2022-10-16T10:06:40;2.97;;;0.70;;
19127;SDS011;9696;53.686;10.094;2022-10-16T10:09:17;2.28;;;0.98;;
19127;SDS011;9696;53.686;10.094;2022-10-16T10:11:52;2.80;;;1.35;;
19127;SDS011;9696;53.686;10.094;2022-10-16T10:14:24;2.72;;;0.73;;
19127;SDS011;9696;53.686;10.094;2022-10-16T10:17:09;3.15;;;1.15;;
19127;SDS011;9696;53.686;10.094;2022-10-16T10:19:43;3.85;;;1.10;;
19127;SDS011;9696;53.686;10.094;2022-10-16T10:22:19;2.17;;;0.70;;
19127;SDS011;9696;53.686;10.094;2022-10-16T10:25:10;4.60;;;0.90;;
19127;SDS011;9696;53.686;10.094;2022-10-16T10:27:56;4.93;;;0.90;;
19127;SDS011;9696;53.686;10.094;2022-10-16T10:30:37;4.53;;;0.60;;
19127;SDS011;9696;53.686;10.094;2022-10-16T10:33:17;1.50;;;0.70;;
19127;SDS011;9696;53.686;10.094;2022-10-16T10:35:56;4.32;;;0.93;;
19127;SDS011;9696;53.686;10.094;2022-10-16T10:38:38;2.10;;;0.80;;
19127;SDS011;9696;53.686;10.094;2022-10-16T10:44:11;3.25;;;0.43;;
19127;SDS011;9696;53.686;10.094;2022-10-16T10:46:48;2.58;;;0.60;;
19127;SDS011;9696;53.686;10.094;2022-10-16T10:49:29;2.17;;;0.45;;
19127;SDS011;9696;53.686;10.094;2022-10-16T10:52:19;6.22;;;1.00;;
19127;SDS011;9696;53.686;10.094;2022-10-16T10:55:08;2.20;;;0.52;;
19127;SDS011;9696;53.686;10.094;2022-10-16T10:57:52;6.43;;;0.88;;
19127;SDS011;9696;53.686;10.094;2022-10-16T11:00:35;2.38;;;0.73;;
19127;SDS011;9696;53.686;10.094;2022-10-16T11:03:27;3.83;;;0.80;;
19127;SDS011;9696;53.686;10.094;2022-10-16T11:06:10;3.22;;;0.63;;
19127;SDS011;9696;53.686;10.094;2022-10-16T11:08:45;3.00;;;0.65;;
19127;SDS011;9696;53.686;10.094;2022-10-16T11:11:23;4.10;;;0.70;;
19127;SDS011;9696;53.686;10.094;2022-10-16T11:13:59;1.88;;;0.70;;
19127;SDS011;9696;53.686;10.094;2022-10-16T11:16:34;2.33;;;0.80;;
19127;SDS011;9696;53.686;10.094;2022-10-16T11:19:10;4.95;;;0.75;;
19127;SDS011;9696;53.686;10.094;2022-10-16T11:21:49;2.35;;;0.60;;
19127;SDS011;9696;53.686;10.094;2022-10-16T11:24:32;3.70;;;0.70;;
19127;SDS011;9696;53.686;10.094;2022-10-16T11:27:09;4.82;;;0.60;;
19127;SDS011;9696;53.686;10.094;2022-10-16T11:29:45;2.92;;;0.57;;
19127;SDS011;9696;53.686;10.094;2022-10-16T11:32:22;2.10;;;0.47;;
19127;SDS011;9696;53.686;10.094;2022-10-16T11:34:57;1.48;;;0.30;;
19127;SDS011;9696;53.686;10.094;2022-10-16T11:37:36;5.00;;;0.60;;
19127;SDS011;9696;53.686;10.094;2022-10-16T11:40:16;4.18;;;0.85;;
19127;SDS011;9696;53.686;10.094;2022-10-16T11:42:51;4.13;;;0.65;;
19127;SDS011;9696;53.686;10.094;2022-10-16T11:45:28;5.70;;;0.80;;
19127;SDS011;9696;53.686;10.094;2022-10-16T11:48:04;2.63;;;0.50;;
19127;SDS011;9696;53.686;10.094;2022-10-16T11:50:43;4.97;;;0.77;;
19127;SDS011;9696;53.686;10.094;2022-10-16T11:53:23;1.15;;;0.40;;
19127;SDS011;9696;53.686;10.094;2022-10-16T11:56:06;2.70;;;0.60;;
19127;SDS011;9696;53.686;10.094;2022-10-16T11:58:36;1.25;;;0.30;;
19127;SDS011;9696;53.686;10.094;2022-10-16T12:01:17;9.93;;;0.70;;
19127;SDS011;9696;53.686;10.094;2022-10-16T12:03:55;1.73;;;0.50;;
19127;SDS011;9696;53.686;10.094;2022-10-16T12:06:42;2.97;;;0.43;;
19127;SDS011;9696;53.686;10.094;2022-10-16T12:09:17;5.13;;;0.35;;
19127;SDS011;9696;53.686;10.094;2022-10-16T12:11:52;6.03;;;0.88;;
19127;SDS011;9696;53.686;10.094;2022-10-16T12:14:32;1.75;;;0.50;;
19127;SDS011;9696;53.686;10.094;2022-10-16T12:17:26;4.63;;;0.75;;
19127;SDS011;9696;53.686;10.094;2022-10-16T12:20:18;4.70;;;0.60;;
19127;SDS011;9696;53.686;10.094;2022-10-16T12:22:50;4.00;;;0.85;;
19127;SDS011;9696;53.686;10.094;2022-10-16T12:25:23;4.43;;;0.70;;
19127;SDS011;9696;53.686;10.094;2022-10-16T12:27:57;6.15;;;0.75;;
19127;SDS011;9696;53.686;10.094;2022-10-16T12:30:31;1.92;;;0.50;;
19127;SDS011;9696;53.686;10.094;2022-10-16T12:33:02;3.80;;;0.73;;
19127;SDS011;9696;53.686;10.094;2022-10-16T12:35:34;5.10;;;0.52;;
19127;SDS011;9696;53.686;10.094;2022-10-16T12:38:15;3.50;;;0.50;;
19127;SDS011;9696;53.686;10.094;2022-10-16T12:40:46;6.82;;;0.70;;
19127;SDS011;9696;53.686;10.094;2022-10-16T12:43:34;4.05;;;0.50;;
19127;SDS011;9696;53.686;10.094;2022-10-16T12:46:18;3.95;;;0.55;;
19127;SDS011;9696;53.686;10.094;2022-10-16T12:48:50;3.92;;;0.70;;
19127;SDS011;9696;53.686;10.094;2022-10-16T12:51:36;6.07;;;0.80;;
19127;SDS011;9696;53.686;10.094;2022-10-16T12:54:11;3.75;;;0.80;;
19127;SDS011;9696;53.686;10.094;2022-10-16T12:56:45;2.55;;;0.50;;
19127;SDS011;9696;53.686;10.094;2022-10-16T12:59:28;4.53;;;0.73;;
19127;SDS011;9696;53.686;10.094;2022-10-16T13:02:19;5.50;;;0.63;;
19127;SDS011;9696;53.686;10.094;2022-10-16T13:05:13;4.90;;;0.93;;
19127;SDS011;9696;53.686;10.094;2022-10-16T13:07:55;4.15;;;0.60;;
19127;SDS011;9696;53.686;10.094;2022-10-16T13:10:34;5.25;;;1.52;;
19127;SDS011;9696;53.686;10.094;2022-10-16T13:13:29;7.43;;;1.00;;
19127;SDS011;9696;53.686;10.094;2022-10-16T13:16:18;2.03;;;0.50;;
19127;SDS011;9696;53.686;10.094;2022-10-16T13:18:55;5.40;;;0.70;;
19127;SDS011;9696;53.686;10.094;2022-10-16T13:21:40;2.38;;;0.52;;
19127;SDS011;9696;53.686;10.094;2022-10-16T13:24:19;1.90;;;0.52;;
19127;SDS011;9696;53.686;10.094;2022-10-16T13:27:00;9.32;;;1.23;;
19127;SDS011;9696;53.686;10.094;2022-10-16T13:29:36;2.50;;;0.88;;
19127;SDS011;9696;53.686;10.094;2022-10-16T13:32:10;3.95;;;0.68;;
19127;SDS011;9696;53.686;10.094;2022-10-16T13:34:44;6.00;;;1.15;;
19127;SDS011;9696;53.686;10.094;2022-10-16T13:37:16;4.47;;;1.00;;
19127;SDS011;9696;53.686;10.094;2022-10-16T13:39:48;4.65;;;0.77;;
19127;SDS011;9696;53.686;10.094;2022-10-16T13:42:25;3.90;;;0.80;;
19127;SDS011;9696;53.686;10.094;2022-10-16T13:44:56;8.38;;;0.85;;
19127;SDS011;9696;53.686;10.094;2022-10-16T13:47:27;7.22;;;0.75;;
19127;SDS011;9696;53.686;10.094;2022-10-16T13:50:01;5.47;;;0.75;;
19127;SDS011;9696;53.686;10.094;2022-10-16T13:52:31;4.18;;;0.77;;
19127;SDS011;9696;53.686;10.094;2022-10-16T13:55:02;5.85;;;0.50;;
19127;SDS011;9696;53.686;10.094;2022-10-16T13:57:33;0.77;;;0.30;;
19127;SDS011;9696;53.686;10.094;2022-10-16T14:00:05;5.70;;;0.65;;
19127;SDS011;9696;53.686;10.094;2022-10-16T14:02:51;4.28;;;0.90;;
19127;SDS011;9696;53.686;10.094;2022-10-16T14:05:24;3.63;;;0.70;;
19127;SDS011;9696;53.686;10.094;2022-10-16T14:07:53;5.63;;;0.82;;
19127;SDS011;9696;53.686;10.094;2022-10-16T14:10:25;4.88;;;0.70;;
19127;SDS011;9696;53.686;10.094;2022-10-16T14:12:59;3.40;;;0.77;;
19127;SDS011;9696;53.686;10.094;2022-10-16T14:15:29;7.28;;;0.82;;
19127;SDS011;9696;53.686;10.094;2022-10-16T14:18:02;9.20;;;1.02;;
19127;SDS011;9696;53.686;10.094;2022-10-16T14:20:33;2.78;;;0.60;;
19127;SDS011;9696;53.686;10.094;2022-10-16T14:23:03;3.25;;;0.70;;
19127;SDS011;9696;53.686;10.094;2022-10-16T14:25:47;1.33;;;0.47;;
19127;SDS011;9696;53.686;10.094;2022-10-16T14:28:18;4.60;;;0.77;;
19127;SDS011;9696;53.686;10.094;2022-10-16T14:30:49;3.80;;;0.40;;
19127;SDS011;9696;53.686;10.094;2022-10-16T14:33:22;3.90;;;0.65;;
19127;SDS011;9696;53.686;10.094;2022-10-16T14:36:00;4.22;;;0.85;;
19127;SDS011;9696;53.686;10.094;2022-10-16T14:38:31;2.55;;;0.85;;
19127;SDS011;9696;53.686;10.094;2022-10-16T14:41:01;5.75;;;0.80;;
19127;SDS011;9696;53.686;10.094;2022-10-16T14:43:32;1.63;;;0.65;;
19127;SDS011;9696;53.686;10.094;2022-10-16T14:46:06;6.25;;;0.95;;
19127;SDS011;9696;53.686;10.094;2022-10-16T14:48:41;7.53;;;0.77;;
19127;SDS011;9696;53.686;10.094;2022-10-16T14:51:12;4.30;;;1.00;;
19127;SDS011;9696;53.686;10.094;2022-10-16T14:53:42;8.07;;;1.10;;
19127;SDS011;9696;53.686;10.094;2022-10-16T14:56:14;6.28;;;0.82;;
19127;SDS011;9696;53.686;10.094;2022-10-16T14:58:47;1.65;;;0.60;;
19127;SDS011;9696;53.686;10.094;2022-10-16T15:01:17;5.35;;;0.85;;
19127;SDS011;9696;53.686;10.094;2022-10-16T15:03:48;10.52;;;0.75;;
19127;SDS011;9696;53.686;10.094;2022-10-16T15:06:19;3.25;;;0.57;;
19127;SDS011;9696;53.686;10.094;2022-10-16T15:08:48;3.75;;;1.02;;
19127;SDS011;9696;53.686;10.094;2022-10-16T15:11:17;9.85;;;0.93;;
19127;SDS011;9696;53.686;10.094;2022-10-16T15:13:47;4.55;;;0.52;;
19127;SDS011;9696;53.686;10.094;2022-10-16T15:16:16;2.67;;;0.55;;
19127;SDS011;9696;53.686;10.094;2022-10-16T15:18:45;6.15;;;1.52;;
19127;SDS011;9696;53.686;10.094;2022-10-16T15:21:18;3.58;;;0.65;;
19127;SDS011;9696;53.686;10.094;2022-10-16T15:23:52;7.13;;;0.73;;
19127;SDS011;9696;53.686;10.094;2022-10-16T15:26:21;8.00;;;1.00;;
19127;SDS011;9696;53.686;10.094;2022-10-16T15:28:50;2.80;;;0.60;;
19127;SDS011;9696;53.686;10.094;2022-10-16T15:31:19;6.50;;;0.85;;
19127;SDS011;9696;53.686;10.094;2022-10-16T15:33:49;6.35;;;0.75;;